sensor_id;sensor_type;location;lat;lon;timestamp;P1;durP1;ratioP1;P2;durP2;ratioP2
14903;SDS011;7543;53.148;8.234;2022-08-21T00:01:28;3.70;;;1.50;;
14903;SDS011;7543;53.148;8.234;2022-08-21T00:03:58;2.63;;;1.50;;
14903;SDS011;7543;53.148;8.234;2022-08-21T00:06:32;3.20;;;1.90;;
14903;SDS011;7543;53.148;8.234;2022-08-21T00:09:00;3.60;;;1.60;;
14903;SDS011;7543;53.148;8.234;2022-08-21T00:11:29;2.57;;;1.60;;
14903;SDS011;7543;53.148;8.234;2022-08-21T00:13:58;1.80;;;1.60;;
14903;SDS011;7543;53.148;8.234;2022-08-21T00:16:26;3.77;;;1.87;;
14903;SDS011;7543;53.148;8.234;2022-08-21T00:18:54;4.03;;;1.80;;
14903;SDS011;7543;53.148;8.234;2022-08-21T00:21:24;4.73;;;1.67;;
14903;SDS011;7543;53.148;8.234;2022-08-21T00:23:52;3.70;;;1.67;;
14903;SDS011;7543;53.148;8.234;2022-08-21T00:26:20;1.83;;;1.23;;
14903;SDS011;7543;53.148;8.234;2022-08-21T00:28:49;3.93;;;1.87;;
14903;SDS011;7543;53.148;8.234;2022-08-21T00:31:17;4.07;;;1.57;;
14903;SDS011;7543;53.148;8.234;2022-08-21T00:33:45;1.87;;;1.33;;
14903;SDS011;7543;53.148;8.234;2022-08-21T00:36:13;2.03;;;1.37;;
14903;SDS011;7543;53.148;8.234;2022-08-21T00:38:43;4.30;;;1.40;;
14903;SDS011;7543;53.148;8.234;2022-08-21T00:41:12;1.90;;;1.20;;
14903;SDS011;7543;53.148;8.234;2022-08-21T00:43:40;5.03;;;1.63;;
14903;SDS011;7543;53.148;8.234;2022-08-21T00:46:08;3.23;;;1.67;;
14903;SDS011;7543;53.148;8.234;2022-08-21T00:48:36;1.50;;;1.10;;
14903;SDS011;7543;53.148;8.234;2022-08-21T00:51:05;2.33;;;1.13;;
14903;SDS011;7543;53.148;8.234;2022-08-21T00:53:35;2.13;;;1.27;;
14903;SDS011;7543;53.148;8.234;2022-08-21T00:56:07;2.33;;;1.67;;
14903;SDS011;7543;53.148;8.234;2022-08-21T00:58:37;2.27;;;1.40;;
14903;SDS011;7543;53.148;8.234;2022-08-21T01:01:07;3.07;;;1.60;;
14903;SDS011;7543;53.148;8.234;2022-08-21T01:03:36;2.77;;;1.23;;
14903;SDS011;7543;53.148;8.234;2022-08-21T01:06:05;3.00;;;1.50;;
14903;SDS011;7543;53.148;8.234;2022-08-21T01:08:34;2.70;;;1.40;;
14903;SDS011;7543;53.148;8.234;2022-08-21T01:11:02;2.07;;;1.50;;
14903;SDS011;7543;53.148;8.234;2022-08-21T01:13:34;2.47;;;1.37;;
14903;SDS011;7543;53.148;8.234;2022-08-21T01:16:04;2.37;;;1.50;;
14903;SDS011;7543;53.148;8.234;2022-08-21T01:18:33;2.03;;;1.50;;
14903;SDS011;7543;53.148;8.234;2022-08-21T01:21:07;2.27;;;1.53;;
14903;SDS011;7543;53.148;8.234;2022-08-21T01:23:37;3.10;;;1.77;;
14903;SDS011;7543;53.148;8.234;2022-08-21T01:26:06;1.87;;;1.60;;
14903;SDS011;7543;53.148;8.234;2022-08-21T01:28:36;3.23;;;1.70;;
14903;SDS011;7543;53.148;8.234;2022-08-21T01:31:07;3.07;;;1.73;;
14903;SDS011;7543;53.148;8.234;2022-08-21T01:33:36;3.93;;;1.60;;
14903;SDS011;7543;53.148;8.234;2022-08-21T01:36:04;2.10;;;1.67;;
14903;SDS011;7543;53.148;8.234;2022-08-21T01:38:34;2.03;;;1.80;;
14903;SDS011;7543;53.148;8.234;2022-08-21T01:41:02;2.23;;;1.80;;
14903;SDS011;7543;53.148;8.234;2022-08-21T01:43:30;2.67;;;1.33;;
14903;SDS011;7543;53.148;8.234;2022-08-21T01:45:58;3.47;;;1.60;;
14903;SDS011;7543;53.148;8.234;2022-08-21T01:48:26;2.13;;;1.40;;
14903;SDS011;7543;53.148;8.234;2022-08-21T01:50:55;2.60;;;1.77;;
14903;SDS011;7543;53.148;8.234;2022-08-21T01:53:25;2.77;;;1.63;;
14903;SDS011;7543;53.148;8.234;2022-08-21T01:55:55;3.23;;;1.70;;
14903;SDS011;7543;53.148;8.234;2022-08-21T01:58:23;4.03;;;1.57;;
14903;SDS011;7543;53.148;8.234;2022-08-21T02:00:51;1.73;;;1.30;;
14903;SDS011;7543;53.148;8.234;2022-08-21T02:03:20;4.97;;;1.53;;
14903;SDS011;7543;53.148;8.234;2022-08-21T02:05:48;4.13;;;1.87;;
14903;SDS011;7543;53.148;8.234;2022-08-21T02:08:17;1.97;;;1.30;;
14903;SDS011;7543;53.148;8.234;2022-08-21T02:10:45;4.43;;;1.50;;
14903;SDS011;7543;53.148;8.234;2022-08-21T02:13:15;2.53;;;1.37;;
14903;SDS011;7543;53.148;8.234;2022-08-21T02:15:43;2.30;;;1.30;;
14903;SDS011;7543;53.148;8.234;2022-08-21T02:18:11;2.30;;;1.47;;
14903;SDS011;7543;53.148;8.234;2022-08-21T02:20:40;4.13;;;1.90;;
14903;SDS011;7543;53.148;8.234;2022-08-21T02:23:11;1.73;;;1.10;;
14903;SDS011;7543;53.148;8.234;2022-08-21T02:25:40;1.47;;;1.20;;
14903;SDS011;7543;53.148;8.234;2022-08-21T02:28:09;3.20;;;1.40;;
14903;SDS011;7543;53.148;8.234;2022-08-21T02:30:42;3.07;;;1.30;;
14903;SDS011;7543;53.148;8.234;2022-08-21T02:33:12;4.20;;;1.40;;
14903;SDS011;7543;53.148;8.234;2022-08-21T02:35:41;2.63;;;1.40;;
14903;SDS011;7543;53.148;8.234;2022-08-21T02:38:11;3.17;;;1.50;;
14903;SDS011;7543;53.148;8.234;2022-08-21T02:40:42;2.17;;;1.77;;
14903;SDS011;7543;53.148;8.234;2022-08-21T02:43:11;1.70;;;1.37;;
14903;SDS011;7543;53.148;8.234;2022-08-21T02:45:40;2.00;;;1.43;;
14903;SDS011;7543;53.148;8.234;2022-08-21T02:48:10;3.37;;;1.57;;
14903;SDS011;7543;53.148;8.234;2022-08-21T02:50:41;2.13;;;1.20;;
14903;SDS011;7543;53.148;8.234;2022-08-21T02:53:11;1.73;;;1.40;;
14903;SDS011;7543;53.148;8.234;2022-08-21T02:55:43;4.13;;;1.40;;
14903;SDS011;7543;53.148;8.234;2022-08-21T02:58:13;1.97;;;1.37;;
14903;SDS011;7543;53.148;8.234;2022-08-21T03:00:47;2.53;;;1.53;;
14903;SDS011;7543;53.148;8.234;2022-08-21T03:03:16;1.30;;;1.20;;
14903;SDS011;7543;53.148;8.234;2022-08-21T03:05:44;2.53;;;1.20;;
14903;SDS011;7543;53.148;8.234;2022-08-21T03:08:13;2.13;;;1.30;;
14903;SDS011;7543;53.148;8.234;2022-08-21T03:10:43;2.37;;;1.43;;
14903;SDS011;7543;53.148;8.234;2022-08-21T03:13:13;2.83;;;1.40;;
14903;SDS011;7543;53.148;8.234;2022-08-21T03:15:41;2.50;;;1.07;;
14903;SDS011;7543;53.148;8.234;2022-08-21T03:18:12;2.67;;;1.17;;
14903;SDS011;7543;53.148;8.234;2022-08-21T03:20:41;1.53;;;1.20;;
14903;SDS011;7543;53.148;8.234;2022-08-21T03:23:12;4.43;;;1.67;;
14903;SDS011;7543;53.148;8.234;2022-08-21T03:25:40;4.13;;;1.40;;
14903;SDS011;7543;53.148;8.234;2022-08-21T03:28:10;1.20;;;1.10;;
14903;SDS011;7543;53.148;8.234;2022-08-21T03:30:39;6.43;;;1.73;;
14903;SDS011;7543;53.148;8.234;2022-08-21T03:33:08;4.67;;;1.90;;
14903;SDS011;7543;53.148;8.234;2022-08-21T03:35:37;1.90;;;1.40;;
14903;SDS011;7543;53.148;8.234;2022-08-21T03:38:05;5.20;;;1.30;;
14903;SDS011;7543;53.148;8.234;2022-08-21T03:40:34;2.87;;;1.70;;
14903;SDS011;7543;53.148;8.234;2022-08-21T03:43:02;3.80;;;1.90;;
14903;SDS011;7543;53.148;8.234;2022-08-21T03:45:30;2.60;;;1.70;;
14903;SDS011;7543;53.148;8.234;2022-08-21T03:47:59;1.67;;;1.30;;
14903;SDS011;7543;53.148;8.234;2022-08-21T03:50:31;3.20;;;1.63;;
14903;SDS011;7543;53.148;8.234;2022-08-21T03:53:02;3.50;;;1.93;;
14903;SDS011;7543;53.148;8.234;2022-08-21T03:55:30;2.13;;;1.47;;
14903;SDS011;7543;53.148;8.234;2022-08-21T03:57:58;2.00;;;1.50;;
14903;SDS011;7543;53.148;8.234;2022-08-21T04:00:27;2.43;;;1.60;;
14903;SDS011;7543;53.148;8.234;2022-08-21T04:02:55;3.00;;;1.90;;
14903;SDS011;7543;53.148;8.234;2022-08-21T04:05:23;2.00;;;1.77;;
14903;SDS011;7543;53.148;8.234;2022-08-21T04:07:58;4.40;;;1.73;;
14903;SDS011;7543;53.148;8.234;2022-08-21T04:10:29;1.70;;;1.40;;
14903;SDS011;7543;53.148;8.234;2022-08-21T04:12:59;2.60;;;1.63;;
14903;SDS011;7543;53.148;8.234;2022-08-21T04:15:27;3.47;;;1.90;;
14903;SDS011;7543;53.148;8.234;2022-08-21T04:17:55;2.23;;;1.60;;
14903;SDS011;7543;53.148;8.234;2022-08-21T04:20:23;3.47;;;1.90;;
14903;SDS011;7543;53.148;8.234;2022-08-21T04:22:51;4.53;;;2.63;;
14903;SDS011;7543;53.148;8.234;2022-08-21T04:25:21;5.00;;;2.10;;
14903;SDS011;7543;53.148;8.234;2022-08-21T04:27:51;3.47;;;2.03;;
14903;SDS011;7543;53.148;8.234;2022-08-21T04:30:20;4.53;;;2.03;;
14903;SDS011;7543;53.148;8.234;2022-08-21T04:32:49;3.77;;;2.17;;
14903;SDS011;7543;53.148;8.234;2022-08-21T04:35:18;3.07;;;2.17;;
14903;SDS011;7543;53.148;8.234;2022-08-21T04:37:48;2.83;;;2.10;;
14903;SDS011;7543;53.148;8.234;2022-08-21T04:40:17;3.57;;;2.10;;
14903;SDS011;7543;53.148;8.234;2022-08-21T04:42:47;3.50;;;2.00;;
14903;SDS011;7543;53.148;8.234;2022-08-21T04:45:21;6.27;;;2.37;;
14903;SDS011;7543;53.148;8.234;2022-08-21T04:47:50;3.50;;;2.67;;
14903;SDS011;7543;53.148;8.234;2022-08-21T04:50:19;3.37;;;2.30;;
14903;SDS011;7543;53.148;8.234;2022-08-21T04:53:04;2.70;;;2.50;;
14903;SDS011;7543;53.148;8.234;2022-08-21T04:55:33;3.47;;;2.37;;
14903;SDS011;7543;53.148;8.234;2022-08-21T04:58:02;4.37;;;2.83;;
14903;SDS011;7543;53.148;8.234;2022-08-21T05:00:31;5.47;;;2.40;;
14903;SDS011;7543;53.148;8.234;2022-08-21T05:03:00;3.63;;;2.00;;
14903;SDS011;7543;53.148;8.234;2022-08-21T05:05:28;4.63;;;2.50;;
14903;SDS011;7543;53.148;8.234;2022-08-21T05:07:57;3.93;;;2.27;;
14903;SDS011;7543;53.148;8.234;2022-08-21T05:10:27;3.60;;;2.50;;
14903;SDS011;7543;53.148;8.234;2022-08-21T05:12:55;2.97;;;2.03;;
14903;SDS011;7543;53.148;8.234;2022-08-21T05:15:24;7.63;;;2.60;;
14903;SDS011;7543;53.148;8.234;2022-08-21T05:17:53;3.50;;;2.60;;
14903;SDS011;7543;53.148;8.234;2022-08-21T05:20:21;4.07;;;2.20;;
14903;SDS011;7543;53.148;8.234;2022-08-21T05:22:49;5.83;;;2.63;;
14903;SDS011;7543;53.148;8.234;2022-08-21T05:25:17;5.00;;;2.90;;
14903;SDS011;7543;53.148;8.234;2022-08-21T05:27:46;6.77;;;2.70;;
14903;SDS011;7543;53.148;8.234;2022-08-21T05:30:14;5.83;;;3.10;;
14903;SDS011;7543;53.148;8.234;2022-08-21T05:32:42;7.00;;;3.30;;
14903;SDS011;7543;53.148;8.234;2022-08-21T05:35:12;5.33;;;2.80;;
14903;SDS011;7543;53.148;8.234;2022-08-21T05:37:40;5.00;;;2.80;;
14903;SDS011;7543;53.148;8.234;2022-08-21T05:40:08;3.77;;;3.03;;
14903;SDS011;7543;53.148;8.234;2022-08-21T05:42:37;4.87;;;2.93;;
14903;SDS011;7543;53.148;8.234;2022-08-21T05:45:06;2.70;;;2.37;;
14903;SDS011;7543;53.148;8.234;2022-08-21T05:47:34;5.70;;;2.73;;
14903;SDS011;7543;53.148;8.234;2022-08-21T05:50:03;5.60;;;3.00;;
14903;SDS011;7543;53.148;8.234;2022-08-21T05:52:33;5.50;;;3.00;;
14903;SDS011;7543;53.148;8.234;2022-08-21T05:55:01;6.10;;;2.73;;
14903;SDS011;7543;53.148;8.234;2022-08-21T05:57:29;4.63;;;3.00;;
14903;SDS011;7543;53.148;8.234;2022-08-21T05:59:58;5.27;;;2.97;;
14903;SDS011;7543;53.148;8.234;2022-08-21T06:02:26;3.70;;;3.03;;
14903;SDS011;7543;53.148;8.234;2022-08-21T06:04:55;5.93;;;2.87;;
14903;SDS011;7543;53.148;8.234;2022-08-21T06:07:24;3.40;;;2.67;;
14903;SDS011;7543;53.148;8.234;2022-08-21T06:09:53;5.37;;;3.00;;
14903;SDS011;7543;53.148;8.234;2022-08-21T06:12:21;7.13;;;2.77;;
14903;SDS011;7543;53.148;8.234;2022-08-21T06:14:50;4.83;;;3.00;;
14903;SDS011;7543;53.148;8.234;2022-08-21T06:17:18;3.67;;;2.40;;
14903;SDS011;7543;53.148;8.234;2022-08-21T06:19:50;5.93;;;2.87;;
14903;SDS011;7543;53.148;8.234;2022-08-21T06:22:18;4.60;;;3.10;;
14903;SDS011;7543;53.148;8.234;2022-08-21T06:24:47;9.43;;;3.10;;
14903;SDS011;7543;53.148;8.234;2022-08-21T06:27:16;4.83;;;3.30;;
14903;SDS011;7543;53.148;8.234;2022-08-21T06:29:45;6.73;;;3.33;;
14903;SDS011;7543;53.148;8.234;2022-08-21T06:32:13;3.80;;;3.10;;
14903;SDS011;7543;53.148;8.234;2022-08-21T06:34:41;8.23;;;3.00;;
14903;SDS011;7543;53.148;8.234;2022-08-21T06:37:10;7.57;;;3.20;;
14903;SDS011;7543;53.148;8.234;2022-08-21T06:39:38;5.67;;;3.23;;
14903;SDS011;7543;53.148;8.234;2022-08-21T06:42:06;3.67;;;2.90;;
14903;SDS011;7543;53.148;8.234;2022-08-21T06:44:42;4.57;;;3.10;;
14903;SDS011;7543;53.148;8.234;2022-08-21T06:47:11;4.00;;;2.80;;
14903;SDS011;7543;53.148;8.234;2022-08-21T06:49:39;4.03;;;2.70;;
14903;SDS011;7543;53.148;8.234;2022-08-21T06:52:08;4.40;;;2.37;;
14903;SDS011;7543;53.148;8.234;2022-08-21T06:54:37;3.97;;;2.60;;
14903;SDS011;7543;53.148;8.234;2022-08-21T06:57:06;4.17;;;2.20;;
14903;SDS011;7543;53.148;8.234;2022-08-21T06:59:34;2.57;;;2.07;;
14903;SDS011;7543;53.148;8.234;2022-08-21T07:02:04;3.53;;;2.07;;
14903;SDS011;7543;53.148;8.234;2022-08-21T07:04:32;5.47;;;2.20;;
14903;SDS011;7543;53.148;8.234;2022-08-21T07:07:00;3.77;;;2.00;;
14903;SDS011;7543;53.148;8.234;2022-08-21T07:09:28;3.20;;;2.03;;
14903;SDS011;7543;53.148;8.234;2022-08-21T07:11:56;7.40;;;2.63;;
14903;SDS011;7543;53.148;8.234;2022-08-21T07:14:24;2.27;;;2.07;;
14903;SDS011;7543;53.148;8.234;2022-08-21T07:16:53;4.07;;;2.30;;
14903;SDS011;7543;53.148;8.234;2022-08-21T07:19:22;2.63;;;1.80;;
14903;SDS011;7543;53.148;8.234;2022-08-21T07:21:50;2.80;;;1.70;;
14903;SDS011;7543;53.148;8.234;2022-08-21T07:24:20;3.60;;;2.00;;
14903;SDS011;7543;53.148;8.234;2022-08-21T07:26:48;5.57;;;1.67;;
14903;SDS011;7543;53.148;8.234;2022-08-21T07:29:16;3.00;;;1.73;;
14903;SDS011;7543;53.148;8.234;2022-08-21T07:31:45;2.63;;;1.60;;
14903;SDS011;7543;53.148;8.234;2022-08-21T07:34:13;5.13;;;1.77;;
14903;SDS011;7543;53.148;8.234;2022-08-21T07:36:43;3.97;;;2.00;;
14903;SDS011;7543;53.148;8.234;2022-08-21T07:39:11;3.07;;;1.90;;
14903;SDS011;7543;53.148;8.234;2022-08-21T07:41:39;3.87;;;1.77;;
14903;SDS011;7543;53.148;8.234;2022-08-21T07:44:08;4.40;;;1.77;;
14903;SDS011;7543;53.148;8.234;2022-08-21T07:46:36;2.17;;;1.60;;
14903;SDS011;7543;53.148;8.234;2022-08-21T07:49:04;3.93;;;1.80;;
14903;SDS011;7543;53.148;8.234;2022-08-21T07:51:32;2.63;;;1.83;;
14903;SDS011;7543;53.148;8.234;2022-08-21T07:54:02;2.50;;;1.80;;
14903;SDS011;7543;53.148;8.234;2022-08-21T07:56:31;4.13;;;1.97;;
14903;SDS011;7543;53.148;8.234;2022-08-21T07:58:59;2.37;;;1.60;;
14903;SDS011;7543;53.148;8.234;2022-08-21T08:01:29;2.90;;;1.80;;
14903;SDS011;7543;53.148;8.234;2022-08-21T08:03:57;2.33;;;1.70;;
14903;SDS011;7543;53.148;8.234;2022-08-21T08:06:25;3.13;;;1.70;;
14903;SDS011;7543;53.148;8.234;2022-08-21T08:08:53;4.77;;;2.07;;
14903;SDS011;7543;53.148;8.234;2022-08-21T08:11:23;3.80;;;1.57;;
14903;SDS011;7543;53.148;8.234;2022-08-21T08:13:51;3.23;;;1.40;;
14903;SDS011;7543;53.148;8.234;2022-08-21T08:16:20;4.50;;;1.80;;
14903;SDS011;7543;53.148;8.234;2022-08-21T08:18:48;3.47;;;1.50;;
14903;SDS011;7543;53.148;8.234;2022-08-21T08:21:16;2.87;;;1.50;;
14903;SDS011;7543;53.148;8.234;2022-08-21T08:23:49;3.30;;;1.67;;
14903;SDS011;7543;53.148;8.234;2022-08-21T08:26:17;3.00;;;1.43;;
14903;SDS011;7543;53.148;8.234;2022-08-21T08:28:47;5.87;;;1.53;;
14903;SDS011;7543;53.148;8.234;2022-08-21T08:31:15;3.17;;;1.40;;
14903;SDS011;7543;53.148;8.234;2022-08-21T08:33:43;5.70;;;1.30;;
14903;SDS011;7543;53.148;8.234;2022-08-21T08:36:12;2.43;;;1.40;;
14903;SDS011;7543;53.148;8.234;2022-08-21T08:38:41;3.57;;;1.70;;
14903;SDS011;7543;53.148;8.234;2022-08-21T08:41:10;7.97;;;1.50;;
14903;SDS011;7543;53.148;8.234;2022-08-21T08:43:40;3.23;;;1.60;;
14903;SDS011;7543;53.148;8.234;2022-08-21T08:46:14;2.43;;;1.37;;
14903;SDS011;7543;53.148;8.234;2022-08-21T08:48:46;3.33;;;1.40;;
14903;SDS011;7543;53.148;8.234;2022-08-21T08:51:21;5.07;;;1.70;;
14903;SDS011;7543;53.148;8.234;2022-08-21T08:53:52;1.87;;;1.20;;
14903;SDS011;7543;53.148;8.234;2022-08-21T08:56:26;2.73;;;1.40;;
14903;SDS011;7543;53.148;8.234;2022-08-21T08:58:56;4.45;;;2.08;;
14903;SDS011;7543;53.148;8.234;2022-08-21T09:01:29;3.40;;;1.70;;
14903;SDS011;7543;53.148;8.234;2022-08-21T09:03:57;3.00;;;1.50;;
14903;SDS011;7543;53.148;8.234;2022-08-21T09:06:29;3.47;;;1.57;;
14903;SDS011;7543;53.148;8.234;2022-08-21T09:09:04;3.10;;;1.57;;
14903;SDS011;7543;53.148;8.234;2022-08-21T09:11:41;1.85;;;1.58;;
14903;SDS011;7543;53.148;8.234;2022-08-21T09:14:14;3.87;;;1.40;;
14903;SDS011;7543;53.148;8.234;2022-08-21T09:16:50;4.30;;;1.23;;
14903;SDS011;7543;53.148;8.234;2022-08-21T09:19:36;4.80;;;1.30;;
14903;SDS011;7543;53.148;8.234;2022-08-21T09:22:15;4.83;;;1.67;;
14903;SDS011;7543;53.148;8.234;2022-08-21T09:24:47;2.95;;;1.35;;
14903;SDS011;7543;53.148;8.234;2022-08-21T09:27:19;3.30;;;1.50;;
14903;SDS011;7543;53.148;8.234;2022-08-21T09:29:49;2.67;;;1.30;;
14903;SDS011;7543;53.148;8.234;2022-08-21T09:32:23;4.93;;;1.50;;
14903;SDS011;7543;53.148;8.234;2022-08-21T09:34:57;2.28;;;1.23;;
14903;SDS011;7543;53.148;8.234;2022-08-21T09:37:28;3.50;;;1.50;;
14903;SDS011;7543;53.148;8.234;2022-08-21T09:39:57;2.38;;;1.08;;
14903;SDS011;7543;53.148;8.234;2022-08-21T09:42:27;4.05;;;1.40;;
14903;SDS011;7543;53.148;8.234;2022-08-21T09:45:07;2.55;;;1.30;;
14903;SDS011;7543;53.148;8.234;2022-08-21T09:47:39;1.00;;;0.90;;
14903;SDS011;7543;53.148;8.234;2022-08-21T09:50:09;3.40;;;1.30;;
14903;SDS011;7543;53.148;8.234;2022-08-21T09:52:43;4.63;;;1.98;;
14903;SDS011;7543;53.148;8.234;2022-08-21T09:55:21;4.53;;;1.40;;
14903;SDS011;7543;53.148;8.234;2022-08-21T10:10:32;4.55;;;1.75;;
14903;SDS011;7543;53.148;8.234;2022-08-21T10:13:06;2.72;;;1.20;;
14903;SDS011;7543;53.148;8.234;2022-08-21T10:15:42;2.17;;;1.20;;
14903;SDS011;7543;53.148;8.234;2022-08-21T10:18:17;2.70;;;1.08;;
14903;SDS011;7543;53.148;8.234;2022-08-21T10:20:49;3.25;;;1.23;;
14903;SDS011;7543;53.148;8.234;2022-08-21T10:23:28;5.03;;;1.55;;
14903;SDS011;7543;53.148;8.234;2022-08-21T10:26:05;6.30;;;1.17;;
14903;SDS011;7543;53.148;8.234;2022-08-21T10:28:37;2.33;;;1.10;;
14903;SDS011;7543;53.148;8.234;2022-08-21T10:31:11;0.80;;;0.70;;
14903;SDS011;7543;53.148;8.234;2022-08-21T10:33:44;5.13;;;1.30;;
14903;SDS011;7543;53.148;8.234;2022-08-21T10:36:16;2.75;;;1.42;;
14903;SDS011;7543;53.148;8.234;2022-08-21T10:38:54;3.83;;;1.00;;
14903;SDS011;7543;53.148;8.234;2022-08-21T10:41:31;1.95;;;1.08;;
14903;SDS011;7543;53.148;8.234;2022-08-21T10:44:09;2.35;;;1.25;;
14903;SDS011;7543;53.148;8.234;2022-08-21T10:46:44;3.45;;;1.02;;
14903;SDS011;7543;53.148;8.234;2022-08-21T10:49:21;3.13;;;1.38;;
14903;SDS011;7543;53.148;8.234;2022-08-21T10:51:54;2.30;;;1.00;;
14903;SDS011;7543;53.148;8.234;2022-08-21T10:54:31;2.38;;;1.15;;
14903;SDS011;7543;53.148;8.234;2022-08-21T10:57:05;2.65;;;1.13;;
14903;SDS011;7543;53.148;8.234;2022-08-21T11:03:28;1.73;;;0.80;;
14903;SDS011;7543;53.148;8.234;2022-08-21T11:06:02;2.05;;;0.88;;
14903;SDS011;7543;53.148;8.234;2022-08-21T11:08:35;4.00;;;1.38;;
14903;SDS011;7543;53.148;8.234;2022-08-21T11:11:07;1.13;;;0.90;;
14903;SDS011;7543;53.148;8.234;2022-08-21T11:13:40;2.97;;;1.20;;
14903;SDS011;7543;53.148;8.234;2022-08-21T11:16:12;1.48;;;0.82;;
14903;SDS011;7543;53.148;8.234;2022-08-21T11:18:45;2.10;;;1.02;;
14903;SDS011;7543;53.148;8.234;2022-08-21T11:21:20;1.77;;;1.10;;
14903;SDS011;7543;53.148;8.234;2022-08-21T11:23:59;3.00;;;0.85;;
14903;SDS011;7543;53.148;8.234;2022-08-21T11:26:32;1.05;;;0.80;;
14903;SDS011;7543;53.148;8.234;2022-08-21T11:29:06;2.60;;;1.08;;
14903;SDS011;7543;53.148;8.234;2022-08-21T11:31:40;1.23;;;0.80;;
14903;SDS011;7543;53.148;8.234;2022-08-21T11:34:21;2.75;;;1.17;;
14903;SDS011;7543;53.148;8.234;2022-08-21T11:36:57;2.60;;;1.00;;
14903;SDS011;7543;53.148;8.234;2022-08-21T11:39:32;3.00;;;1.17;;
14903;SDS011;7543;53.148;8.234;2022-08-21T11:42:07;2.35;;;0.93;;
14903;SDS011;7543;53.148;8.234;2022-08-21T11:44:43;3.25;;;1.33;;
14903;SDS011;7543;53.148;8.234;2022-08-21T11:47:19;1.05;;;0.80;;
14903;SDS011;7543;53.148;8.234;2022-08-21T11:49:58;1.63;;;0.73;;
14903;SDS011;7543;53.148;8.234;2022-08-21T11:52:34;3.78;;;1.20;;
14903;SDS011;7543;53.148;8.234;2022-08-21T11:55:05;2.17;;;1.10;;
14903;SDS011;7543;53.148;8.234;2022-08-21T11:57:36;5.55;;;1.10;;
14903;SDS011;7543;53.148;8.234;2022-08-21T12:00:10;3.22;;;0.80;;
14903;SDS011;7543;53.148;8.234;2022-08-21T12:02:42;1.45;;;1.00;;
14903;SDS011;7543;53.148;8.234;2022-08-21T12:05:22;2.95;;;1.10;;
14903;SDS011;7543;53.148;8.234;2022-08-21T12:08:00;3.17;;;0.98;;
14903;SDS011;7543;53.148;8.234;2022-08-21T12:10:31;1.83;;;1.05;;
14903;SDS011;7543;53.148;8.234;2022-08-21T12:13:07;1.95;;;0.80;;
14903;SDS011;7543;53.148;8.234;2022-08-21T12:15:39;4.45;;;1.10;;
14903;SDS011;7543;53.148;8.234;2022-08-21T12:18:18;0.85;;;0.80;;
14903;SDS011;7543;53.148;8.234;2022-08-21T12:21:00;0.90;;;0.70;;
14903;SDS011;7543;53.148;8.234;2022-08-21T12:23:31;2.13;;;1.08;;
14903;SDS011;7543;53.148;8.234;2022-08-21T12:26:10;4.03;;;1.23;;
14903;SDS011;7543;53.148;8.234;2022-08-21T12:28:50;1.92;;;0.98;;
14903;SDS011;7543;53.148;8.234;2022-08-21T12:31:24;3.45;;;1.08;;
14903;SDS011;7543;53.148;8.234;2022-08-21T12:33:54;1.55;;;0.95;;
14903;SDS011;7543;53.148;8.234;2022-08-21T12:36:27;2.22;;;0.85;;
14903;SDS011;7543;53.148;8.234;2022-08-21T12:39:03;1.00;;;0.77;;
14903;SDS011;7543;53.148;8.234;2022-08-21T12:41:41;3.33;;;0.85;;
14903;SDS011;7543;53.148;8.234;2022-08-21T12:44:14;2.83;;;1.10;;
14903;SDS011;7543;53.148;8.234;2022-08-21T12:46:45;1.98;;;1.15;;
14903;SDS011;7543;53.148;8.234;2022-08-21T12:49:18;2.75;;;1.30;;
14903;SDS011;7543;53.148;8.234;2022-08-21T12:51:52;3.47;;;0.90;;
14903;SDS011;7543;53.148;8.234;2022-08-21T12:54:23;2.50;;;1.00;;
14903;SDS011;7543;53.148;8.234;2022-08-21T12:56:58;1.00;;;0.90;;
14903;SDS011;7543;53.148;8.234;2022-08-21T12:59:27;1.13;;;0.90;;
14903;SDS011;7543;53.148;8.234;2022-08-21T13:01:58;1.63;;;1.10;;
14903;SDS011;7543;53.148;8.234;2022-08-21T13:04:31;2.40;;;1.05;;
14903;SDS011;7543;53.148;8.234;2022-08-21T13:07:05;2.05;;;0.90;;
14903;SDS011;7543;53.148;8.234;2022-08-21T13:09:33;1.40;;;0.93;;
14903;SDS011;7543;53.148;8.234;2022-08-21T13:12:02;4.65;;;1.20;;
14903;SDS011;7543;53.148;8.234;2022-08-21T13:14:36;2.40;;;0.90;;
14903;SDS011;7543;53.148;8.234;2022-08-21T13:17:06;6.43;;;1.13;;
14903;SDS011;7543;53.148;8.234;2022-08-21T13:19:35;4.75;;;1.20;;
14903;SDS011;7543;53.148;8.234;2022-08-21T13:22:03;2.45;;;1.00;;
14903;SDS011;7543;53.148;8.234;2022-08-21T13:24:33;0.82;;;0.80;;
14903;SDS011;7543;53.148;8.234;2022-08-21T13:27:19;2.38;;;1.08;;
14903;SDS011;7543;53.148;8.234;2022-08-21T13:29:59;3.30;;;1.05;;
14903;SDS011;7543;53.148;8.234;2022-08-21T13:32:30;1.27;;;0.82;;
14903;SDS011;7543;53.148;8.234;2022-08-21T13:35:07;1.45;;;0.85;;
14903;SDS011;7543;53.148;8.234;2022-08-21T13:37:38;1.35;;;0.90;;
14903;SDS011;7543;53.148;8.234;2022-08-21T13:40:09;1.75;;;0.70;;
14903;SDS011;7543;53.148;8.234;2022-08-21T13:42:40;1.85;;;0.73;;
14903;SDS011;7543;53.148;8.234;2022-08-21T13:45:14;2.28;;;0.98;;
14903;SDS011;7543;53.148;8.234;2022-08-21T13:47:45;1.08;;;0.77;;
14903;SDS011;7543;53.148;8.234;2022-08-21T13:50:15;1.65;;;1.00;;
14903;SDS011;7543;53.148;8.234;2022-08-21T13:52:48;1.05;;;0.75;;
14903;SDS011;7543;53.148;8.234;2022-08-21T13:55:34;3.88;;;1.17;;
14903;SDS011;7543;53.148;8.234;2022-08-21T13:58:04;1.20;;;0.60;;
14903;SDS011;7543;53.148;8.234;2022-08-21T14:00:37;0.90;;;0.80;;
14903;SDS011;7543;53.148;8.234;2022-08-21T14:03:15;1.85;;;1.00;;
14903;SDS011;7543;53.148;8.234;2022-08-21T14:05:54;0.80;;;0.65;;
14903;SDS011;7543;53.148;8.234;2022-08-21T14:08:23;1.92;;;1.00;;
14903;SDS011;7543;53.148;8.234;2022-08-21T14:10:57;1.85;;;0.70;;
14903;SDS011;7543;53.148;8.234;2022-08-21T14:13:28;1.15;;;0.80;;
14903;SDS011;7543;53.148;8.234;2022-08-21T14:16:01;1.50;;;0.80;;
14903;SDS011;7543;53.148;8.234;2022-08-21T14:18:31;1.00;;;0.85;;
14903;SDS011;7543;53.148;8.234;2022-08-21T14:21:03;1.42;;;0.73;;
14903;SDS011;7543;53.148;8.234;2022-08-21T14:23:33;1.98;;;0.73;;
14903;SDS011;7543;53.148;8.234;2022-08-21T14:26:02;0.50;;;0.50;;
14903;SDS011;7543;53.148;8.234;2022-08-21T14:28:32;5.22;;;0.98;;
14903;SDS011;7543;53.148;8.234;2022-08-21T14:31:10;3.15;;;0.60;;
14903;SDS011;7543;53.148;8.234;2022-08-21T14:33:41;1.00;;;0.70;;
14903;SDS011;7543;53.148;8.234;2022-08-21T14:36:09;0.60;;;0.60;;
14903;SDS011;7543;53.148;8.234;2022-08-21T14:38:38;0.60;;;0.60;;
14903;SDS011;7543;53.148;8.234;2022-08-21T14:41:10;1.50;;;0.68;;
14903;SDS011;7543;53.148;8.234;2022-08-21T14:43:43;1.23;;;0.68;;
14903;SDS011;7543;53.148;8.234;2022-08-21T14:46:12;1.40;;;0.60;;
14903;SDS011;7543;53.148;8.234;2022-08-21T14:48:42;3.08;;;0.80;;
14903;SDS011;7543;53.148;8.234;2022-08-21T14:51:11;2.10;;;0.90;;
14903;SDS011;7543;53.148;8.234;2022-08-21T14:53:39;1.52;;;0.70;;
14903;SDS011;7543;53.148;8.234;2022-08-21T14:56:07;1.80;;;0.60;;
14903;SDS011;7543;53.148;8.234;2022-08-21T14:58:37;0.73;;;0.60;;
14903;SDS011;7543;53.148;8.234;2022-08-21T15:01:07;1.27;;;1.02;;
14903;SDS011;7543;53.148;8.234;2022-08-21T15:03:36;0.90;;;0.60;;
14903;SDS011;7543;53.148;8.234;2022-08-21T15:06:06;1.60;;;0.70;;
14903;SDS011;7543;53.148;8.234;2022-08-21T15:08:35;1.35;;;0.77;;
14903;SDS011;7543;53.148;8.234;2022-08-21T15:11:04;1.35;;;0.65;;
14903;SDS011;7543;53.148;8.234;2022-08-21T15:13:33;2.05;;;0.70;;
14903;SDS011;7543;53.148;8.234;2022-08-21T15:16:02;1.48;;;0.70;;
14903;SDS011;7543;53.148;8.234;2022-08-21T15:18:30;1.73;;;0.90;;
14903;SDS011;7543;53.148;8.234;2022-08-21T15:20:59;1.40;;;0.80;;
14903;SDS011;7543;53.148;8.234;2022-08-21T15:23:28;1.55;;;0.80;;
14903;SDS011;7543;53.148;8.234;2022-08-21T15:25:56;2.85;;;0.90;;
14903;SDS011;7543;53.148;8.234;2022-08-21T15:28:25;0.73;;;0.65;;
14903;SDS011;7543;53.148;8.234;2022-08-21T15:30:53;1.83;;;1.05;;
14903;SDS011;7543;53.148;8.234;2022-08-21T15:33:21;0.70;;;0.63;;
14903;SDS011;7543;53.148;8.234;2022-08-21T15:35:49;2.08;;;0.60;;
14903;SDS011;7543;53.148;8.234;2022-08-21T15:38:18;3.10;;;0.82;;